createdAt,value
2022-12-11T00:00:55.462Z,18.90
2022-12-11T00:01:55.525Z,18.80
2022-12-11T00:02:55.437Z,18.10
2022-12-11T00:03:55.404Z,19.20
2022-12-11T00:04:55.348Z,19.30
2022-12-11T00:05:55.372Z,19.20
2022-12-11T00:06:55.351Z,18.60
2022-12-11T00:07:55.407Z,19.00
2022-12-11T00:08:55.334Z,19.30
2022-12-11T00:09:55.288Z,18.40
2022-12-11T00:10:55.301Z,18.70
2022-12-11T00:11:55.323Z,19.00
2022-12-11T00:12:55.236Z,18.90
2022-12-11T00:13:55.304Z,19.10
2022-12-11T00:14:55.256Z,19.10
2022-12-11T00:15:55.232Z,19.10
2022-12-11T00:16:55.428Z,18.40
2022-12-11T00:17:55.290Z,18.50
2022-12-11T00:18:55.211Z,19.30
2022-12-11T00:19:55.201Z,18.50
2022-12-11T00:20:55.173Z,18.70
2022-12-11T00:21:55.212Z,18.40
2022-12-11T00:22:55.265Z,19.60
2022-12-11T00:23:55.210Z,17.60
2022-12-11T00:24:55.151Z,18.70
2022-12-11T00:25:55.144Z,18.90
2022-12-11T00:26:55.121Z,18.90
2022-12-11T00:27:55.093Z,18.20
2022-12-11T00:28:55.122Z,18.20
2022-12-11T00:29:55.138Z,18.70
2022-12-11T00:30:55.202Z,18.30
2022-12-11T00:31:55.188Z,18.80
2022-12-11T00:32:55.105Z,18.90
2022-12-11T00:33:55.064Z,19.10
2022-12-11T00:34:55.046Z,18.50
2022-12-11T00:35:55.071Z,18.60
2022-12-11T00:36:55.077Z,18.00
2022-12-11T00:37:55.036Z,18.10
2022-12-11T00:38:55.018Z,18.30
2022-12-11T00:39:55.016Z,18.40
2022-12-11T00:40:55.000Z,18.20
2022-12-11T00:41:55.050Z,18.50
2022-12-11T00:42:54.973Z,18.30
2022-12-11T00:43:54.955Z,18.40
2022-12-11T00:44:54.940Z,18.40
2022-12-11T00:45:55.041Z,18.40
2022-12-11T00:46:54.956Z,17.80
2022-12-11T00:47:55.003Z,18.50
2022-12-11T00:48:54.914Z,17.70
2022-12-11T00:49:54.875Z,18.10
2022-12-11T00:50:54.858Z,18.00
2022-12-11T00:51:54.872Z,18.40
2022-12-11T00:52:54.852Z,17.80
2022-12-11T00:53:54.885Z,17.70
2022-12-11T00:54:54.818Z,17.30
2022-12-11T00:55:54.864Z,18.50
2022-12-11T00:56:54.815Z,17.50
2022-12-11T00:57:54.813Z,17.80
2022-12-11T00:58:54.829Z,17.00
2022-12-11T00:59:54.860Z,17.10
2022-12-11T01:00:54.806Z,17.70
2022-12-11T01:01:55.025Z,18.00
2022-12-11T01:02:54.905Z,17.60
2022-12-11T01:03:54.761Z,18.10
2022-12-11T01:04:54.758Z,17.60
2022-12-11T01:05:54.873Z,17.90
2022-12-11T01:06:54.849Z,17.10
2022-12-11T01:07:54.757Z,17.60
2022-12-11T01:08:54.732Z,17.10
2022-12-11T01:09:54.714Z,16.70
2022-12-11T01:10:54.782Z,17.20
2022-12-11T01:11:54.737Z,17.10
2022-12-11T01:12:54.669Z,17.20
2022-12-11T01:13:54.627Z,16.60
2022-12-11T01:14:54.688Z,17.20
2022-12-11T01:15:54.635Z,16.80
2022-12-11T01:16:54.733Z,17.30
2022-12-11T01:17:54.678Z,17.50
2022-12-11T01:18:54.589Z,16.80
2022-12-11T01:19:54.609Z,16.80
2022-12-11T01:20:54.723Z,16.50
2022-12-11T01:21:54.583Z,17.10
2022-12-11T01:22:54.558Z,17.30
2022-12-11T01:23:54.623Z,17.10
2022-12-11T01:24:54.545Z,17.20
2022-12-11T01:25:54.543Z,16.80
2022-12-11T01:26:54.553Z,17.10
2022-12-11T01:27:54.520Z,17.20
2022-12-11T01:28:54.509Z,16.30
2022-12-11T01:29:54.550Z,17.30
2022-12-11T01:30:54.545Z,17.00
2022-12-11T01:31:54.488Z,16.60
2022-12-11T01:32:54.483Z,16.30
2022-12-11T01:33:54.473Z,16.20
2022-12-11T01:34:54.476Z,16.50
2022-12-11T01:35:54.539Z,16.30
2022-12-11T01:36:54.414Z,17.40
2022-12-11T01:37:54.407Z,16.20
2022-12-11T01:38:54.414Z,16.10
2022-12-11T01:39:54.413Z,16.40
2022-12-11T01:40:54.383Z,16.80
2022-12-11T01:41:54.428Z,16.60
2022-12-11T01:42:54.370Z,17.20
2022-12-11T01:43:54.388Z,16.60
2022-12-11T01:44:54.349Z,16.60
2022-12-11T01:45:54.395Z,16.10
2022-12-11T01:46:54.333Z,16.20
2022-12-11T01:47:54.366Z,16.20
2022-12-11T01:48:54.303Z,16.70
2022-12-11T01:49:54.291Z,16.30
2022-12-11T01:50:54.334Z,16.40
2022-12-11T01:51:54.283Z,16.00
2022-12-11T01:52:54.264Z,15.70
2022-12-11T01:53:54.279Z,16.50
2022-12-11T01:54:54.251Z,16.00
2022-12-11T01:55:54.238Z,16.00
2022-12-11T01:56:54.248Z,15.70
2022-12-11T01:57:54.232Z,16.00
2022-12-11T01:58:54.241Z,16.10
2022-12-11T01:59:54.280Z,16.60
2022-12-11T02:00:54.284Z,16.00
2022-12-11T02:01:54.162Z,15.80
2022-12-11T02:02:54.227Z,16.00
2022-12-11T02:03:54.169Z,16.60
2022-12-11T02:04:54.210Z,15.50
2022-12-11T02:05:54.238Z,16.40
2022-12-11T02:06:54.120Z,16.00
2022-12-11T02:07:54.190Z,16.10
2022-12-11T02:08:54.108Z,15.80
2022-12-11T02:09:54.190Z,15.80
2022-12-11T02:10:54.122Z,16.20
2022-12-11T02:11:54.131Z,15.40
2022-12-11T02:12:54.059Z,15.80
2022-12-11T02:13:54.039Z,16.00
2022-12-11T02:14:54.029Z,15.80
2022-12-11T02:15:54.021Z,15.50
2022-12-11T02:16:54.063Z,15.90
2022-12-11T02:17:54.088Z,15.40
2022-12-11T02:18:53.983Z,15.30
2022-12-11T02:19:53.983Z,15.50
2022-12-11T02:20:53.992Z,16.00
2022-12-11T02:21:54.048Z,15.90
2022-12-11T02:22:53.971Z,15.90
2022-12-11T02:23:54.001Z,15.30
2022-12-11T02:24:54.000Z,15.80
2022-12-11T02:25:53.902Z,15.50
2022-12-11T02:26:53.907Z,15.20
2022-12-11T02:27:54.091Z,16.60
2022-12-11T02:28:53.885Z,15.80
2022-12-11T02:29:53.965Z,16.20
2022-12-11T02:30:53.882Z,15.60
2022-12-11T02:31:53.952Z,15.50
2022-12-11T02:32:53.863Z,15.20
2022-12-11T02:33:53.811Z,16.10
2022-12-11T02:34:53.925Z,15.50
2022-12-11T02:35:53.862Z,15.50
2022-12-11T02:36:53.840Z,15.50
2022-12-11T02:37:53.790Z,14.90
2022-12-11T02:38:53.775Z,16.80
2022-12-11T02:39:53.819Z,15.80
2022-12-11T02:40:53.758Z,15.80
2022-12-11T02:41:53.813Z,15.60
2022-12-11T02:42:53.767Z,15.80
2022-12-11T02:43:53.717Z,15.60
2022-12-11T02:44:53.715Z,15.80
2022-12-11T02:45:53.794Z,15.70
2022-12-11T02:46:53.702Z,15.90
2022-12-11T02:47:53.769Z,15.80
2022-12-11T02:48:53.659Z,15.90
2022-12-11T02:49:53.825Z,15.70
2022-12-11T02:50:53.638Z,15.80
2022-12-11T02:51:53.637Z,15.10
2022-12-11T02:52:53.646Z,15.20
2022-12-11T02:53:53.663Z,15.60
2022-12-11T02:54:53.665Z,15.60
2022-12-11T02:55:53.606Z,15.30
2022-12-11T02:56:53.621Z,15.60
2022-12-11T02:57:53.644Z,15.40
2022-12-11T02:58:58.373Z,15.30
2022-12-11T02:59:53.604Z,15.20
2022-12-11T03:00:53.582Z,14.70
2022-12-11T03:01:53.568Z,15.30
2022-12-11T03:02:53.550Z,16.30
2022-12-11T03:03:53.505Z,15.70
2022-12-11T03:04:53.510Z,15.00
2022-12-11T03:05:53.592Z,15.20
2022-12-11T03:06:53.528Z,15.30
2022-12-11T03:07:53.500Z,15.00
2022-12-11T03:08:53.487Z,15.50
2022-12-11T03:09:53.515Z,15.30
2022-12-11T03:10:53.441Z,15.00
2022-12-11T03:11:53.503Z,15.50
2022-12-11T03:12:54.129Z,15.00
2022-12-11T03:13:53.577Z,14.50
2022-12-11T03:14:53.432Z,15.20
2022-12-11T03:15:53.397Z,16.40
2022-12-11T03:16:53.387Z,14.90
2022-12-11T03:17:53.437Z,15.30
2022-12-11T03:18:53.377Z,15.00
2022-12-11T03:19:53.359Z,14.70
2022-12-11T03:20:53.348Z,14.80
2022-12-11T03:21:53.342Z,14.70
2022-12-11T03:22:53.339Z,15.00
2022-12-11T03:23:53.923Z,14.70
2022-12-11T03:24:53.349Z,15.40
2022-12-11T03:25:53.329Z,14.30
2022-12-11T03:26:56.570Z,14.60
2022-12-11T03:27:53.283Z,14.80
2022-12-11T03:28:53.348Z,14.20
2022-12-11T03:29:53.369Z,14.40
2022-12-11T03:30:53.350Z,14.40
2022-12-11T03:31:53.251Z,14.50
2022-12-11T03:32:53.254Z,15.00
2022-12-11T03:33:53.254Z,14.60
2022-12-11T03:34:58.038Z,14.30
2022-12-11T03:35:53.297Z,14.50
2022-12-11T03:36:53.200Z,14.30
2022-12-11T03:37:53.172Z,14.40
2022-12-11T03:38:53.203Z,14.10
2022-12-11T03:39:53.176Z,13.60
2022-12-11T03:40:53.182Z,14.20
2022-12-11T03:41:53.232Z,14.30
2022-12-11T03:42:53.147Z,14.60
2022-12-11T03:43:53.208Z,13.70
2022-12-11T03:44:53.120Z,13.90
2022-12-11T03:45:53.144Z,13.90
2022-12-11T03:46:53.102Z,14.00
2022-12-11T03:47:53.138Z,14.00
2022-12-11T03:48:53.092Z,14.00
2022-12-11T03:49:53.081Z,13.90
2022-12-11T03:50:53.059Z,13.90
2022-12-11T03:51:53.048Z,13.70
2022-12-11T03:52:53.012Z,14.00
2022-12-11T03:53:53.110Z,13.80
2022-12-11T03:54:53.014Z,14.20
2022-12-11T03:55:53.027Z,13.80
2022-12-11T03:56:52.982Z,14.40
2022-12-11T03:57:53.006Z,13.70
2022-12-11T03:58:53.235Z,13.80
2022-12-11T03:59:53.019Z,14.00
2022-12-11T04:00:52.990Z,14.00
2022-12-11T04:01:52.999Z,14.00
2022-12-11T04:02:52.928Z,13.60
2022-12-11T04:03:52.964Z,13.20
2022-12-11T04:04:52.923Z,13.60
2022-12-11T04:05:52.958Z,13.30
2022-12-11T04:06:52.900Z,12.90
2022-12-11T04:07:52.917Z,13.30
2022-12-11T04:08:52.909Z,12.90
2022-12-11T04:09:52.865Z,13.20
2022-12-11T04:10:52.873Z,13.00
2022-12-11T04:11:52.969Z,13.30
2022-12-11T04:12:52.845Z,13.00
2022-12-11T04:13:52.865Z,12.80
2022-12-11T04:14:52.815Z,12.00
2022-12-11T04:15:52.859Z,12.90
2022-12-11T04:16:52.797Z,13.20
2022-12-11T04:17:52.916Z,13.20
2022-12-11T04:18:52.785Z,12.30
2022-12-11T04:19:52.768Z,13.00
2022-12-11T04:20:52.767Z,13.10
2022-12-11T04:21:52.765Z,13.10
2022-12-11T04:22:52.733Z,12.70
2022-12-11T04:23:52.796Z,12.50
2022-12-11T04:24:52.719Z,12.50
2022-12-11T04:25:52.715Z,12.30
2022-12-11T04:26:52.746Z,12.20
2022-12-11T04:27:52.682Z,12.30
2022-12-11T04:28:52.684Z,12.40
2022-12-11T04:29:52.744Z,12.10
2022-12-11T04:30:52.713Z,11.80
2022-12-11T04:31:52.661Z,12.90
2022-12-11T04:32:52.710Z,12.10
2022-12-11T04:33:52.652Z,12.50
2022-12-11T04:34:52.628Z,12.10
2022-12-11T04:35:52.639Z,12.10
2022-12-11T04:36:52.657Z,12.80
2022-12-11T04:37:52.607Z,12.00
2022-12-11T04:38:52.586Z,11.90
2022-12-11T04:39:52.573Z,12.70
2022-12-11T04:40:52.557Z,11.70
2022-12-11T04:41:52.523Z,12.20
2022-12-11T04:42:52.588Z,11.50
2022-12-11T04:43:52.534Z,11.60
2022-12-11T04:44:52.527Z,12.10
2022-12-11T04:45:52.509Z,11.70
2022-12-11T04:46:52.553Z,11.90
2022-12-11T04:47:52.595Z,11.80
2022-12-11T04:48:57.038Z,11.20
2022-12-11T04:49:52.466Z,12.40
2022-12-11T04:50:52.470Z,11.50
2022-12-11T04:51:52.449Z,12.10
2022-12-11T04:52:52.450Z,12.00
2022-12-11T04:53:52.482Z,11.50
2022-12-11T04:54:52.414Z,12.10
2022-12-11T04:55:52.436Z,11.70
2022-12-11T04:56:52.413Z,11.50
2022-12-11T04:57:52.393Z,11.80
2022-12-11T04:58:52.389Z,11.50
2022-12-11T04:59:52.449Z,11.90
2022-12-11T05:00:52.361Z,11.50
2022-12-11T05:01:52.470Z,11.20
2022-12-11T05:02:52.434Z,11.40
2022-12-11T05:03:52.345Z,11.50
2022-12-11T05:04:52.330Z,11.50
2022-12-11T05:05:52.378Z,11.20
2022-12-11T05:06:52.301Z,11.00
2022-12-11T05:07:52.372Z,10.80
2022-12-11T05:08:52.276Z,11.50
2022-12-11T05:09:52.278Z,11.20
2022-12-11T05:10:52.251Z,11.30
2022-12-11T05:11:52.227Z,11.00
2022-12-11T05:12:52.255Z,10.90
2022-12-11T05:13:52.255Z,10.90
2022-12-11T05:14:52.265Z,11.10
2022-12-11T05:15:52.307Z,10.70
2022-12-11T05:16:52.228Z,10.20
2022-12-11T05:17:52.285Z,11.20
2022-12-11T05:18:52.179Z,11.30
2022-12-11T05:19:52.175Z,11.00
2022-12-11T05:20:52.142Z,10.40
2022-12-11T05:21:52.146Z,11.20
2022-12-11T05:22:52.137Z,10.60
2022-12-11T05:23:52.171Z,10.70
2022-12-11T05:24:52.137Z,10.30
2022-12-11T05:25:52.111Z,10.60
2022-12-11T05:26:52.095Z,10.20
2022-12-11T05:27:52.076Z,10.60
2022-12-11T05:28:52.071Z,10.50
2022-12-11T05:29:57.747Z,10.50
2022-12-11T05:30:52.152Z,10.10
2022-12-11T05:31:52.041Z,10.30
2022-12-11T05:32:52.074Z,9.80
2022-12-11T05:33:52.035Z,9.80
2022-12-11T05:34:52.014Z,10.30
2022-12-11T05:35:52.069Z,10.10
2022-12-11T05:36:51.998Z,9.90
2022-12-11T05:37:51.968Z,10.30
2022-12-11T05:38:51.992Z,10.80
2022-12-11T05:39:51.969Z,10.40
2022-12-11T05:40:52.036Z,9.90
2022-12-11T05:41:51.998Z,9.60
2022-12-11T05:42:51.932Z,10.00
2022-12-11T05:43:51.933Z,9.90
2022-12-11T05:44:51.943Z,9.90
2022-12-11T05:45:51.884Z,9.80
2022-12-11T05:46:51.980Z,9.70
2022-12-11T05:47:51.992Z,9.80
2022-12-11T05:48:51.883Z,10.20
2022-12-11T05:49:51.772Z,9.70
2022-12-11T05:50:51.865Z,9.80
2022-12-11T05:51:51.898Z,9.70
2022-12-11T05:52:51.860Z,10.10
2022-12-11T05:53:51.891Z,9.60
2022-12-11T05:54:52.108Z,9.50
2022-12-11T05:55:51.827Z,10.00
2022-12-11T05:56:51.830Z,9.30
2022-12-11T05:57:51.790Z,9.60
2022-12-11T05:58:51.767Z,9.50
2022-12-11T05:59:51.817Z,9.40
2022-12-11T06:00:51.775Z,9.80
2022-12-11T06:01:51.845Z,9.40
2022-12-11T06:02:51.874Z,9.20
2022-12-11T06:03:51.711Z,8.50
2022-12-11T06:04:51.618Z,9.20
2022-12-11T06:05:51.765Z,9.30
2022-12-11T06:06:51.750Z,9.70
2022-12-11T06:07:51.800Z,9.20
2022-12-11T06:08:51.697Z,9.30
2022-12-11T06:09:51.586Z,9.20
2022-12-11T06:10:51.640Z,9.10
2022-12-11T06:11:51.688Z,9.10
2022-12-11T06:12:51.634Z,9.20
2022-12-11T06:13:51.629Z,8.70
2022-12-11T06:14:51.516Z,8.90
2022-12-11T06:15:51.600Z,8.80
2022-12-11T06:16:51.619Z,8.90
2022-12-11T06:17:51.608Z,8.70
2022-12-11T06:18:52.935Z,8.90
2022-12-11T06:19:51.543Z,9.00
2022-12-11T06:20:51.562Z,8.90
2022-12-11T06:21:51.583Z,9.00
2022-12-11T06:22:51.526Z,8.80
2022-12-11T06:23:51.601Z,8.30
2022-12-11T06:24:51.446Z,8.70
2022-12-11T06:25:51.480Z,8.80
2022-12-11T06:26:51.479Z,8.20
2022-12-11T06:27:51.485Z,8.80
2022-12-11T06:28:51.465Z,8.60
2022-12-11T06:29:51.551Z,8.90
2022-12-11T06:30:51.460Z,8.80
2022-12-11T06:31:51.501Z,9.00
2022-12-11T06:32:51.440Z,9.20
2022-12-11T06:33:51.421Z,8.70
2022-12-11T06:34:51.291Z,8.40
2022-12-11T06:35:51.494Z,8.50
2022-12-11T06:36:51.440Z,8.70
2022-12-11T06:37:51.392Z,8.40
2022-12-11T06:38:51.368Z,8.50
2022-12-11T06:39:51.382Z,7.80
2022-12-11T06:40:51.361Z,8.60
2022-12-11T06:41:51.399Z,8.00
2022-12-11T06:42:51.316Z,8.10
2022-12-11T06:43:51.338Z,8.60
2022-12-11T06:44:51.222Z,8.40
2022-12-11T06:45:51.369Z,8.40
2022-12-11T06:46:51.421Z,7.80
2022-12-11T06:47:51.347Z,8.40
2022-12-11T06:48:51.265Z,8.40
2022-12-11T06:49:51.260Z,7.70
2022-12-11T06:50:51.247Z,8.20
2022-12-11T06:51:51.287Z,8.10
2022-12-11T06:52:51.270Z,8.10
2022-12-11T06:53:51.293Z,8.40
2022-12-11T06:54:51.121Z,7.80
2022-12-11T06:55:51.187Z,7.90
2022-12-11T06:56:51.187Z,8.20
2022-12-11T06:57:51.160Z,7.80
2022-12-11T06:58:51.164Z,7.30
2022-12-11T06:59:51.231Z,7.50
2022-12-11T07:00:51.275Z,7.60
2022-12-11T07:01:51.184Z,8.10
2022-12-11T07:02:51.142Z,7.10
2022-12-11T07:03:51.144Z,7.10
2022-12-11T07:04:55.039Z,7.20
2022-12-11T07:05:51.177Z,7.80
2022-12-11T07:06:51.114Z,7.80
2022-12-11T07:07:51.139Z,7.00
2022-12-11T07:08:51.046Z,7.30
2022-12-11T07:09:51.047Z,7.40
2022-12-11T07:10:51.104Z,7.00
2022-12-11T07:11:51.069Z,7.00
2022-12-11T07:12:51.055Z,7.40
2022-12-11T07:13:51.022Z,6.90
2022-12-11T07:14:51.003Z,7.20
2022-12-11T07:15:50.988Z,7.10
2022-12-11T07:16:51.027Z,6.60
2022-12-11T07:17:51.022Z,7.10
2022-12-11T07:18:50.974Z,6.80
2022-12-11T07:19:51.017Z,7.20
2022-12-11T07:20:50.942Z,7.10
2022-12-11T07:21:50.919Z,7.00
2022-12-11T07:22:50.935Z,7.20
2022-12-11T07:23:51.005Z,7.00
2022-12-11T07:24:50.903Z,6.80
2022-12-11T07:25:51.049Z,6.30
2022-12-11T07:26:50.920Z,6.50
2022-12-11T07:27:50.880Z,7.00
2022-12-11T07:28:50.861Z,6.50
2022-12-11T07:29:50.883Z,7.10
2022-12-11T07:30:50.860Z,7.20
2022-12-11T07:31:50.867Z,6.60
2022-12-11T07:32:50.839Z,6.70
2022-12-11T07:33:50.822Z,6.50
2022-12-11T07:34:52.082Z,6.80
2022-12-11T07:35:50.882Z,6.30
2022-12-11T07:36:50.768Z,6.40
2022-12-11T07:37:50.782Z,6.70
2022-12-11T07:38:50.749Z,7.00
2022-12-11T07:39:50.750Z,6.50
2022-12-11T07:40:50.799Z,6.70
2022-12-11T07:41:50.832Z,6.60
2022-12-11T07:42:50.746Z,6.30
2022-12-11T07:43:50.730Z,6.70
2022-12-11T07:44:50.701Z,6.60
2022-12-11T07:45:50.728Z,6.30
2022-12-11T07:46:50.686Z,6.40
2022-12-11T07:47:50.738Z,6.20
2022-12-11T07:48:50.653Z,6.20
2022-12-11T07:49:50.660Z,6.30
2022-12-11T07:50:50.653Z,6.20
2022-12-11T07:51:50.646Z,6.30
2022-12-11T07:52:50.637Z,6.40
2022-12-11T07:53:50.684Z,6.10
2022-12-11T07:54:50.518Z,6.10
2022-12-11T07:55:50.636Z,6.50
2022-12-11T07:56:53.728Z,6.10
2022-12-11T07:57:50.601Z,6.50
2022-12-11T07:58:50.582Z,6.40
2022-12-11T07:59:50.702Z,6.00
2022-12-11T08:00:50.584Z,6.10
2022-12-11T08:01:50.567Z,6.40
2022-12-11T08:02:50.569Z,6.60
2022-12-11T08:03:50.540Z,6.60
2022-12-11T08:04:50.513Z,6.50
2022-12-11T08:05:50.567Z,6.60
2022-12-11T08:06:50.504Z,6.50
2022-12-11T08:07:50.485Z,7.20
2022-12-11T08:08:50.501Z,7.10
2022-12-11T08:09:50.494Z,7.40
2022-12-11T08:10:50.466Z,7.30
2022-12-11T08:11:50.588Z,7.40
2022-12-11T08:12:50.421Z,7.20
2022-12-11T08:13:50.413Z,7.70
2022-12-11T08:14:50.495Z,7.20
2022-12-11T08:15:50.398Z,7.80
2022-12-11T08:16:50.429Z,7.60
2022-12-11T08:17:50.457Z,7.80
2022-12-11T08:18:50.370Z,8.20
2022-12-11T08:19:50.391Z,8.40
2022-12-11T08:20:50.412Z,8.90
2022-12-11T08:21:50.322Z,8.40
2022-12-11T08:22:53.463Z,8.90
2022-12-11T08:23:50.407Z,8.90
2022-12-11T08:24:50.426Z,9.60
2022-12-11T08:25:50.167Z,8.80
2022-12-11T08:26:50.319Z,9.60
2022-12-11T08:27:50.276Z,9.70
2022-12-11T08:28:50.264Z,9.30
2022-12-11T08:29:50.471Z,9.50
2022-12-11T08:30:50.348Z,9.40
2022-12-11T08:31:50.231Z,9.40
2022-12-11T08:32:50.242Z,9.50
2022-12-11T08:33:50.231Z,9.60
2022-12-11T08:34:50.209Z,10.00
2022-12-11T08:35:50.354Z,9.50
2022-12-11T08:36:50.205Z,9.20
2022-12-11T08:37:50.187Z,9.60
2022-12-11T08:38:50.162Z,9.50
2022-12-11T08:39:50.282Z,9.20
2022-12-11T08:40:50.150Z,9.70
2022-12-11T08:41:50.180Z,8.70
2022-12-11T08:42:50.141Z,9.40
2022-12-11T08:43:50.107Z,9.80
2022-12-11T08:44:50.153Z,9.10
2022-12-11T08:45:50.186Z,9.60
2022-12-11T08:46:50.069Z,9.50
2022-12-11T08:47:50.119Z,9.00
2022-12-11T08:48:50.082Z,8.80
2022-12-11T08:49:50.073Z,9.20
2022-12-11T08:50:50.046Z,9.30
2022-12-11T08:51:50.031Z,8.80
2022-12-11T08:52:50.019Z,9.20
2022-12-11T08:53:50.092Z,9.20
2022-12-11T08:54:49.994Z,8.80
2022-12-11T08:55:49.928Z,8.90
2022-12-11T08:56:53.544Z,9.30
2022-12-11T08:57:49.978Z,9.40
2022-12-11T08:58:49.990Z,9.10
2022-12-11T08:59:50.056Z,8.90
2022-12-11T09:00:49.960Z,9.00
2022-12-11T09:01:49.998Z,8.70
2022-12-11T09:02:49.969Z,8.50
2022-12-11T09:03:49.886Z,8.70
2022-12-11T09:04:49.934Z,8.50
2022-12-11T09:05:50.105Z,8.80
2022-12-11T09:06:49.889Z,8.80
2022-12-11T09:07:49.929Z,9.10
2022-12-11T09:08:52.598Z,8.50
2022-12-11T09:09:49.836Z,8.80
2022-12-11T09:10:49.862Z,8.30
2022-12-11T09:11:49.895Z,8.90
2022-12-11T09:12:49.885Z,8.30
2022-12-11T09:13:49.791Z,8.50
2022-12-11T09:14:49.868Z,8.70
2022-12-11T09:15:49.885Z,8.60
2022-12-11T09:16:49.864Z,8.60
2022-12-11T09:17:49.885Z,8.40
2022-12-11T09:18:49.927Z,8.10
2022-12-11T09:19:49.764Z,8.40
2022-12-11T09:20:49.807Z,8.00
2022-12-11T09:21:49.786Z,8.70
2022-12-11T09:22:49.742Z,7.80
2022-12-11T09:23:49.792Z,8.60
2022-12-11T09:24:49.710Z,9.10
2022-12-11T09:25:49.712Z,8.50
2022-12-11T09:26:49.691Z,8.30
2022-12-11T09:27:49.728Z,8.20
2022-12-11T09:28:49.678Z,8.60
2022-12-11T09:29:49.764Z,8.10
2022-12-11T09:30:49.809Z,7.80
2022-12-11T09:31:49.647Z,8.40
2022-12-11T09:32:49.663Z,7.80
2022-12-11T09:33:49.701Z,7.90
2022-12-11T09:34:49.602Z,8.90
2022-12-11T09:35:49.660Z,8.10
2022-12-11T09:36:49.623Z,7.80
2022-12-11T09:37:49.569Z,8.00
2022-12-11T09:38:49.563Z,7.90
2022-12-11T09:39:49.565Z,8.30
2022-12-11T09:40:49.595Z,8.40
2022-12-11T09:41:49.607Z,8.10
2022-12-11T09:42:49.578Z,8.20
2022-12-11T09:43:49.551Z,8.20
2022-12-11T09:44:49.542Z,8.20
2022-12-11T09:45:49.549Z,8.00
2022-12-11T09:46:49.608Z,8.00
2022-12-11T09:47:49.587Z,8.20
2022-12-11T09:48:49.530Z,7.90
2022-12-11T09:49:49.474Z,7.70
2022-12-11T09:50:49.572Z,7.90
2022-12-11T09:51:49.450Z,8.20
2022-12-11T09:52:49.421Z,7.90
2022-12-11T09:53:49.480Z,7.60
2022-12-11T09:54:49.407Z,8.00
2022-12-11T09:55:49.365Z,8.00
2022-12-11T09:56:49.416Z,8.10
2022-12-11T09:57:49.395Z,8.10
2022-12-11T09:58:49.356Z,7.60
2022-12-11T09:59:49.421Z,7.90
2022-12-11T10:00:49.375Z,7.90
2022-12-11T10:01:49.356Z,7.70
2022-12-11T10:02:49.433Z,8.10
2022-12-11T10:03:49.390Z,7.80
2022-12-11T10:04:49.243Z,8.30
2022-12-11T10:05:49.371Z,7.80
2022-12-11T10:06:49.279Z,8.10
2022-12-11T10:07:49.399Z,8.10
2022-12-11T10:08:49.256Z,8.10
2022-12-11T10:09:49.247Z,8.00
2022-12-11T10:10:49.302Z,7.80
2022-12-11T10:11:56.119Z,7.90
2022-12-11T10:12:49.230Z,8.10
2022-12-11T10:13:49.217Z,7.90
2022-12-11T10:14:49.285Z,8.10
2022-12-11T10:15:49.262Z,8.30
2022-12-11T10:16:49.226Z,8.30
2022-12-11T10:17:49.191Z,8.80
2022-12-11T10:18:49.256Z,8.20
2022-12-11T10:19:49.195Z,8.10
2022-12-11T10:20:49.170Z,8.30
2022-12-11T10:21:49.127Z,8.00
2022-12-11T10:22:49.123Z,8.30
2022-12-11T10:23:49.191Z,7.50
2022-12-11T10:25:49.134Z,8.10
2022-12-11T10:26:49.082Z,8.70
2022-12-11T10:27:49.066Z,8.30
2022-12-11T10:28:49.038Z,8.50
2022-12-11T10:29:49.089Z,8.00
2022-12-11T10:30:49.093Z,8.10
2022-12-11T10:31:49.029Z,8.80
2022-12-11T10:32:49.001Z,8.30
2022-12-11T10:33:49.040Z,8.50
2022-12-11T10:34:49.075Z,8.20
2022-12-11T10:35:49.064Z,8.30
2022-12-11T10:36:48.989Z,8.50
2022-12-11T10:37:48.965Z,8.40
2022-12-11T10:38:49.069Z,8.50
2022-12-11T10:39:48.950Z,8.50
2022-12-11T10:40:48.994Z,8.50
2022-12-11T10:41:49.013Z,9.20
2022-12-11T10:42:48.944Z,8.80
2022-12-11T10:43:48.975Z,8.80
2022-12-11T10:44:48.910Z,8.70
2022-12-11T10:45:48.891Z,8.50
2022-12-11T10:46:48.978Z,8.40
2022-12-11T10:47:48.905Z,8.00
2022-12-11T10:48:48.934Z,9.10
2022-12-11T10:49:48.841Z,8.40
2022-12-11T10:50:48.826Z,9.00
2022-12-11T10:51:48.882Z,8.50
2022-12-11T10:52:48.816Z,8.80
2022-12-11T10:53:48.857Z,9.10
2022-12-11T10:54:48.818Z,8.40
2022-12-11T10:55:48.776Z,8.50
2022-12-11T10:56:48.882Z,8.80
2022-12-11T10:57:48.756Z,8.70
2022-12-11T10:58:48.755Z,9.20
2022-12-11T10:59:48.797Z,9.00
2022-12-11T11:00:48.725Z,8.80
2022-12-11T11:01:48.795Z,8.70
2022-12-11T11:02:48.812Z,9.30
2022-12-11T11:03:48.744Z,9.20
2022-12-11T11:04:48.711Z,9.10
2022-12-11T11:05:49.620Z,9.00
2022-12-11T11:06:48.679Z,9.30
2022-12-11T11:07:48.700Z,8.80
2022-12-11T11:08:48.673Z,8.50
2022-12-11T11:09:48.669Z,9.10
2022-12-11T11:10:48.660Z,9.10
2022-12-11T11:11:48.690Z,9.20
2022-12-11T11:12:48.543Z,9.00
2022-12-11T11:13:48.593Z,9.20
2022-12-11T11:14:48.709Z,9.30
2022-12-11T11:15:48.775Z,9.40
2022-12-11T11:16:48.571Z,9.40
2022-12-11T11:17:55.076Z,9.60
2022-12-11T11:18:48.721Z,8.20
2022-12-11T11:19:48.564Z,8.80
2022-12-11T11:20:48.581Z,9.60
2022-12-11T11:21:48.519Z,9.30
2022-12-11T11:22:48.538Z,9.20
2022-12-11T11:23:53.327Z,9.50
2022-12-11T11:24:48.588Z,9.70
2022-12-11T11:25:48.573Z,9.20
2022-12-11T11:27:12.179Z,9.40
2022-12-11T11:27:48.502Z,9.50
2022-12-11T11:28:48.481Z,9.40
2022-12-11T11:29:52.931Z,9.50
2022-12-11T11:30:48.379Z,9.60
2022-12-11T11:31:48.438Z,9.70
2022-12-11T11:32:48.439Z,9.50
2022-12-11T11:33:48.454Z,9.60
2022-12-11T11:34:48.435Z,9.80
2022-12-11T11:35:48.424Z,9.50
2022-12-11T11:36:48.416Z,9.20
2022-12-11T11:37:48.491Z,9.70
2022-12-11T11:38:48.435Z,9.70
2022-12-11T11:39:48.386Z,9.70
2022-12-11T11:40:48.407Z,9.70
2022-12-11T11:41:48.419Z,9.90
2022-12-11T11:42:48.293Z,10.10
2022-12-11T11:43:48.376Z,10.10
2022-12-11T11:44:48.333Z,10.50
2022-12-11T11:45:48.352Z,9.40
2022-12-11T11:46:48.377Z,10.00
2022-12-11T11:47:48.369Z,10.00
2022-12-11T11:48:48.315Z,10.00
2022-12-11T11:49:48.209Z,10.30
2022-12-11T11:50:48.179Z,10.20
2022-12-11T11:51:48.166Z,9.90
2022-12-11T11:52:48.146Z,10.20
2022-12-11T11:53:48.177Z,10.50
2022-12-11T11:54:48.115Z,10.40
2022-12-11T11:55:48.166Z,10.80
2022-12-11T11:56:48.195Z,10.50
2022-12-11T11:57:48.176Z,10.60
2022-12-11T11:58:48.146Z,9.80
2022-12-11T11:59:48.285Z,11.30
2022-12-11T12:00:48.144Z,10.80
2022-12-11T12:01:48.160Z,10.10
2022-12-11T12:02:48.151Z,9.80
2022-12-11T12:03:48.099Z,10.80
2022-12-11T12:04:48.118Z,10.80
2022-12-11T12:05:48.392Z,10.50
2022-12-11T12:06:50.915Z,10.30
2022-12-11T12:07:48.220Z,10.30
2022-12-11T12:08:48.079Z,10.20
2022-12-11T12:09:48.098Z,10.90
2022-12-11T12:10:48.072Z,10.90
2022-12-11T12:11:48.018Z,10.80
2022-12-11T12:12:48.090Z,10.20
2022-12-11T12:13:49.943Z,10.70
2022-12-11T12:14:52.570Z,10.50
2022-12-11T12:15:47.997Z,10.70
2022-12-11T12:16:53.031Z,10.50
2022-12-11T12:17:52.017Z,10.90
2022-12-11T12:18:47.929Z,10.70
2022-12-11T12:19:47.991Z,10.80
2022-12-11T12:20:47.981Z,10.70
2022-12-11T12:21:47.934Z,11.20
2022-12-11T12:22:48.011Z,10.70
2022-12-11T12:23:48.018Z,10.90
2022-12-11T12:24:47.943Z,11.70
2022-12-11T12:25:47.885Z,11.00
2022-12-11T12:26:47.887Z,10.80
2022-12-11T12:27:52.738Z,10.50
2022-12-11T12:28:47.866Z,11.20
2022-12-11T12:29:47.945Z,10.70
2022-12-11T12:30:47.878Z,10.40
2022-12-11T12:31:47.889Z,11.50
2022-12-11T12:32:47.874Z,10.90
2022-12-11T12:33:47.787Z,10.40
2022-12-11T12:34:47.837Z,11.50
2022-12-11T12:35:47.824Z,11.50
2022-12-11T12:36:47.783Z,11.00
2022-12-11T12:37:47.833Z,11.10
2022-12-11T12:38:47.771Z,11.50
2022-12-11T12:39:47.766Z,11.20
2022-12-11T12:40:47.763Z,11.20
2022-12-11T12:41:47.769Z,11.50
2022-12-11T12:42:47.760Z,11.20
2022-12-11T12:43:47.779Z,11.10
2022-12-11T12:44:47.693Z,10.70
2022-12-11T12:45:47.771Z,11.00
2022-12-11T12:46:47.704Z,11.60
2022-12-11T12:47:51.973Z,11.50
2022-12-11T12:48:47.657Z,11.30
2022-12-11T12:49:47.592Z,10.90
2022-12-11T12:50:47.620Z,11.00
2022-12-11T12:51:47.623Z,11.60
2022-12-11T12:52:47.688Z,11.60
2022-12-11T12:53:47.673Z,10.70
2022-12-11T12:54:47.565Z,11.30
2022-12-11T12:55:47.621Z,11.40
2022-12-11T12:56:47.594Z,11.30
2022-12-11T12:57:47.576Z,11.10
2022-12-11T12:58:47.526Z,11.40
2022-12-11T12:59:47.614Z,11.80
2022-12-11T13:00:47.646Z,11.70
2022-12-11T13:01:47.583Z,11.70
2022-12-11T13:02:47.513Z,11.40
2022-12-11T13:03:47.515Z,12.20
2022-12-11T13:04:56.119Z,11.50
2022-12-11T13:05:47.526Z,11.10